Kingsville Naval Air Station
KNQI : now visible

Airfield :











YOU CAN JOIN US ON...

 
LOGIN :

Register | Disclaimer

   EN    FR    IT 

 









Legend :    VFR   Marginal VFR   IFR   Intensive IFR   Very Intensive IFR
Visi :
Ceiling :
>= 8 km
>= 3000ft
5 to 8 km
1000 to 3000 ft
1500m to 5 km
500 to 1000 ft
800 to 1500m
200 to 500 ft
< 800m
< 200 ft
Symbols :   Thunderstorms  Fog  Heavy snow  Heavy precipitations  Wind > 20 kt






- Airport Elevation : 50 ft


KNQI - Kingsville Naval Air Station

CURRENT METAR :
  • 291656Z 33010KT 10SM FEW029 SCT045 SCT140 BKN250 29/21 A3006 RMK AO2 SLP176 T2 SET T02890211

EXPIRED METARs :
  • 291556Z 32016KT 10SM FEW040 SCT120 BKN250 28/21 A3005 RMK AO2 SLP171 T2 SET T02780211
  • 291456Z 32011KT 10SM FEW040 FEW080 SCT150 BKN250 26/21 A3006 RMK AO2 SLP177 CB DSNT SW T2 SET T02560206 53014

TAF TAF KNQI
Valid from the 29 at 15:00 until the 30 at 15:00 UTC


2915/3015 36012KT 9999 VCTS FEW030 SCT060CB BKN150 OVC250 QNH3002INS
TEMPO 2915/2921 33015KT
FM292300 VRB06KT 9999 SCT030 BKN250 QNH2996INS
FM300700 VRB06KT 9999 FEW015 BKN030 QNH2998INS T34/2920Z T23/3012Z FN20058
KZHU FIR / North America



MET'MAP, your aeronautical weather chart ! - Copyright ORBIFLY December 2007 - Disclaimer

ORBIFLY MET'MAP TEAM :

Programming & Development : Alexandra Zaïnal
Concept & original design : Baudouin d'Aumeries
Assistance for programming : Marc-Olivier Méhu
Technical & hardware support : Manuel Goepfert

Contact : metmap@orbifly.com




SOURCES & CREDITS :

   NOAA       Earth
Advisory